sensor_id;sensor_type;location;lat;lon;timestamp;P1;durP1;ratioP1;P2;durP2;ratioP2
59239;SDS011;45010;53.640;10.578;2022-10-16T00:02:36;34.67;;;22.20;;
59239;SDS011;45010;53.640;10.578;2022-10-16T00:05:40;33.42;;;21.63;;
59239;SDS011;45010;53.640;10.578;2022-10-16T00:08:42;32.03;;;20.90;;
59239;SDS011;45010;53.640;10.578;2022-10-16T00:11:43;34.10;;;21.38;;
59239;SDS011;45010;53.640;10.578;2022-10-16T00:14:43;31.92;;;20.45;;
59239;SDS011;45010;53.640;10.578;2022-10-16T00:17:43;30.70;;;19.70;;
59239;SDS011;45010;53.640;10.578;2022-10-16T00:20:44;28.60;;;18.90;;
59239;SDS011;45010;53.640;10.578;2022-10-16T00:23:44;31.00;;;19.33;;
59239;SDS011;45010;53.640;10.578;2022-10-16T00:26:45;28.75;;;19.50;;
59239;SDS011;45010;53.640;10.578;2022-10-16T00:29:50;27.10;;;17.20;;
59239;SDS011;45010;53.640;10.578;2022-10-16T00:32:51;28.60;;;18.55;;
59239;SDS011;45010;53.640;10.578;2022-10-16T00:35:51;29.33;;;17.30;;
59239;SDS011;45010;53.640;10.578;2022-10-16T00:38:52;26.02;;;16.90;;
59239;SDS011;45010;53.640;10.578;2022-10-16T00:41:54;27.00;;;16.88;;
59239;SDS011;45010;53.640;10.578;2022-10-16T00:44:56;26.02;;;16.52;;
59239;SDS011;45010;53.640;10.578;2022-10-16T00:47:57;25.13;;;15.98;;
59239;SDS011;45010;53.640;10.578;2022-10-16T00:50:58;23.98;;;15.52;;
59239;SDS011;45010;53.640;10.578;2022-10-16T00:53:58;22.23;;;14.75;;
59239;SDS011;45010;53.640;10.578;2022-10-16T00:57:01;21.38;;;14.05;;
59239;SDS011;45010;53.640;10.578;2022-10-16T01:00:06;20.83;;;14.10;;
59239;SDS011;45010;53.640;10.578;2022-10-16T01:03:24;20.98;;;14.18;;
59239;SDS011;45010;53.640;10.578;2022-10-16T01:12:59;22.40;;;13.43;;
59239;SDS011;45010;53.640;10.578;2022-10-16T01:16:09;18.52;;;12.85;;
59239;SDS011;45010;53.640;10.578;2022-10-16T01:19:18;18.20;;;13.07;;
59239;SDS011;45010;53.640;10.578;2022-10-16T01:22:26;16.45;;;11.88;;
59239;SDS011;45010;53.640;10.578;2022-10-16T01:26:13;18.48;;;11.77;;
59239;SDS011;45010;53.640;10.578;2022-10-16T01:29:20;19.02;;;12.77;;
59239;SDS011;45010;53.640;10.578;2022-10-16T01:35:35;19.08;;;11.18;;
59239;SDS011;45010;53.640;10.578;2022-10-16T01:38:39;15.88;;;10.55;;
59239;SDS011;45010;53.640;10.578;2022-10-16T01:41:42;16.02;;;10.95;;
59239;SDS011;45010;53.640;10.578;2022-10-16T01:44:46;14.95;;;10.77;;
59239;SDS011;45010;53.640;10.578;2022-10-16T01:47:48;14.00;;;9.60;;
59239;SDS011;45010;53.640;10.578;2022-10-16T01:51:13;14.57;;;9.23;;
59239;SDS011;45010;53.640;10.578;2022-10-16T01:54:14;15.02;;;10.00;;
59239;SDS011;45010;53.640;10.578;2022-10-16T01:57:18;12.05;;;9.15;;
59239;SDS011;45010;53.640;10.578;2022-10-16T02:00:21;13.30;;;9.50;;
59239;SDS011;45010;53.640;10.578;2022-10-16T02:03:23;13.30;;;9.20;;
59239;SDS011;45010;53.640;10.578;2022-10-16T02:06:23;13.95;;;9.02;;
59239;SDS011;45010;53.640;10.578;2022-10-16T02:09:25;12.25;;;8.70;;
59239;SDS011;45010;53.640;10.578;2022-10-16T02:12:33;13.60;;;8.52;;
59239;SDS011;45010;53.640;10.578;2022-10-16T02:15:39;11.30;;;7.90;;
59239;SDS011;45010;53.640;10.578;2022-10-16T02:18:40;12.93;;;8.30;;
59239;SDS011;45010;53.640;10.578;2022-10-16T02:31:38;11.40;;;7.20;;
59239;SDS011;45010;53.640;10.578;2022-10-16T02:34:41;10.18;;;7.07;;
59239;SDS011;45010;53.640;10.578;2022-10-16T02:37:43;11.18;;;7.03;;
59239;SDS011;45010;53.640;10.578;2022-10-16T02:40:45;9.77;;;6.55;;
59239;SDS011;45010;53.640;10.578;2022-10-16T02:43:46;10.45;;;7.00;;
59239;SDS011;45010;53.640;10.578;2022-10-16T02:46:46;9.77;;;7.00;;
59239;SDS011;45010;53.640;10.578;2022-10-16T02:49:46;9.95;;;6.60;;
59239;SDS011;45010;53.640;10.578;2022-10-16T02:52:46;7.63;;;5.72;;
59239;SDS011;45010;53.640;10.578;2022-10-16T02:55:47;9.07;;;5.57;;
59239;SDS011;45010;53.640;10.578;2022-10-16T02:58:47;8.73;;;6.35;;
59239;SDS011;45010;53.640;10.578;2022-10-16T03:01:47;6.68;;;5.05;;
59239;SDS011;45010;53.640;10.578;2022-10-16T03:04:48;8.40;;;6.07;;
59239;SDS011;45010;53.640;10.578;2022-10-16T03:07:48;8.15;;;6.05;;
59239;SDS011;45010;53.640;10.578;2022-10-16T03:10:49;9.27;;;6.00;;
59239;SDS011;45010;53.640;10.578;2022-10-16T03:13:50;9.55;;;5.68;;
59239;SDS011;45010;53.640;10.578;2022-10-16T03:16:50;7.72;;;5.00;;
59239;SDS011;45010;53.640;10.578;2022-10-16T03:19:51;7.88;;;5.03;;
59239;SDS011;45010;53.640;10.578;2022-10-16T03:22:51;7.38;;;5.30;;
59239;SDS011;45010;53.640;10.578;2022-10-16T03:25:51;8.07;;;4.75;;
59239;SDS011;45010;53.640;10.578;2022-10-16T03:28:52;8.05;;;5.38;;
59239;SDS011;45010;53.640;10.578;2022-10-16T03:31:52;6.32;;;4.65;;
59239;SDS011;45010;53.640;10.578;2022-10-16T03:34:53;6.63;;;4.55;;
59239;SDS011;45010;53.640;10.578;2022-10-16T03:37:54;6.90;;;4.72;;
59239;SDS011;45010;53.640;10.578;2022-10-16T03:40:54;4.95;;;4.07;;
59239;SDS011;45010;53.640;10.578;2022-10-16T03:43:54;6.40;;;4.45;;
59239;SDS011;45010;53.640;10.578;2022-10-16T03:46:55;5.97;;;4.25;;
59239;SDS011;45010;53.640;10.578;2022-10-16T03:49:55;4.75;;;4.07;;
59239;SDS011;45010;53.640;10.578;2022-10-16T03:52:55;6.07;;;4.32;;
59239;SDS011;45010;53.640;10.578;2022-10-16T03:55:56;9.18;;;4.15;;
59239;SDS011;45010;53.640;10.578;2022-10-16T03:58:56;4.65;;;4.18;;
59239;SDS011;45010;53.640;10.578;2022-10-16T04:01:56;5.45;;;3.67;;
59239;SDS011;45010;53.640;10.578;2022-10-16T04:04:57;7.18;;;3.80;;
59239;SDS011;45010;53.640;10.578;2022-10-16T04:07:57;6.63;;;4.13;;
59239;SDS011;45010;53.640;10.578;2022-10-16T04:10:57;5.65;;;3.72;;
59239;SDS011;45010;53.640;10.578;2022-10-16T04:13:58;4.10;;;3.23;;
59239;SDS011;45010;53.640;10.578;2022-10-16T04:16:58;5.82;;;3.53;;
59239;SDS011;45010;53.640;10.578;2022-10-16T04:19:58;5.07;;;3.88;;
59239;SDS011;45010;53.640;10.578;2022-10-16T04:22:59;4.25;;;3.45;;
59239;SDS011;45010;53.640;10.578;2022-10-16T04:25:59;5.57;;;3.80;;
59239;SDS011;45010;53.640;10.578;2022-10-16T04:29:00;4.80;;;3.42;;
59239;SDS011;45010;53.640;10.578;2022-10-16T04:32:00;4.40;;;3.05;;
59239;SDS011;45010;53.640;10.578;2022-10-16T04:35:00;4.32;;;3.40;;
59239;SDS011;45010;53.640;10.578;2022-10-16T04:38:01;3.45;;;3.15;;
59239;SDS011;45010;53.640;10.578;2022-10-16T04:41:01;3.55;;;2.75;;
59239;SDS011;45010;53.640;10.578;2022-10-16T04:44:01;4.15;;;3.20;;
59239;SDS011;45010;53.640;10.578;2022-10-16T04:47:02;4.72;;;3.03;;
59239;SDS011;45010;53.640;10.578;2022-10-16T04:50:02;4.70;;;3.33;;
59239;SDS011;45010;53.640;10.578;2022-10-16T04:53:03;3.13;;;2.70;;
59239;SDS011;45010;53.640;10.578;2022-10-16T04:56:03;4.40;;;2.88;;
59239;SDS011;45010;53.640;10.578;2022-10-16T04:59:03;2.45;;;2.22;;
59239;SDS011;45010;53.640;10.578;2022-10-16T05:02:04;3.30;;;2.78;;
59239;SDS011;45010;53.640;10.578;2022-10-16T05:05:04;4.22;;;3.30;;
59239;SDS011;45010;53.640;10.578;2022-10-16T05:08:05;3.58;;;2.85;;
59239;SDS011;45010;53.640;10.578;2022-10-16T05:11:05;3.92;;;2.80;;
59239;SDS011;45010;53.640;10.578;2022-10-16T05:14:06;2.97;;;2.55;;
59239;SDS011;45010;53.640;10.578;2022-10-16T05:17:06;3.35;;;2.80;;
59239;SDS011;45010;53.640;10.578;2022-10-16T05:20:07;2.55;;;2.35;;
59239;SDS011;45010;53.640;10.578;2022-10-16T05:23:07;2.80;;;2.47;;
59239;SDS011;45010;53.640;10.578;2022-10-16T05:26:10;2.63;;;2.25;;
59239;SDS011;45010;53.640;10.578;2022-10-16T05:29:10;2.90;;;2.40;;
59239;SDS011;45010;53.640;10.578;2022-10-16T05:32:10;4.75;;;2.70;;
59239;SDS011;45010;53.640;10.578;2022-10-16T05:35:11;2.83;;;2.28;;
59239;SDS011;45010;53.640;10.578;2022-10-16T05:38:11;2.53;;;2.30;;
59239;SDS011;45010;53.640;10.578;2022-10-16T05:41:11;3.38;;;2.72;;
59239;SDS011;45010;53.640;10.578;2022-10-16T05:44:12;2.45;;;2.20;;
59239;SDS011;45010;53.640;10.578;2022-10-16T05:47:13;3.08;;;2.30;;
59239;SDS011;45010;53.640;10.578;2022-10-16T05:50:14;2.97;;;2.38;;
59239;SDS011;45010;53.640;10.578;2022-10-16T05:53:14;3.28;;;2.10;;
59239;SDS011;45010;53.640;10.578;2022-10-16T05:56:15;2.38;;;2.00;;
59239;SDS011;45010;53.640;10.578;2022-10-16T05:59:15;2.10;;;1.88;;
59239;SDS011;45010;53.640;10.578;2022-10-16T06:02:16;2.13;;;1.92;;
59239;SDS011;45010;53.640;10.578;2022-10-16T06:05:16;2.72;;;2.22;;
59239;SDS011;45010;53.640;10.578;2022-10-16T06:08:17;3.15;;;2.05;;
59239;SDS011;45010;53.640;10.578;2022-10-16T06:11:19;2.28;;;2.00;;
59239;SDS011;45010;53.640;10.578;2022-10-16T06:14:20;1.80;;;1.70;;
59239;SDS011;45010;53.640;10.578;2022-10-16T06:17:21;1.88;;;1.70;;
59239;SDS011;45010;53.640;10.578;2022-10-16T06:20:21;2.30;;;1.92;;
59239;SDS011;45010;53.640;10.578;2022-10-16T06:23:21;2.15;;;1.95;;
59239;SDS011;45010;53.640;10.578;2022-10-16T06:26:23;2.67;;;1.80;;
59239;SDS011;45010;53.640;10.578;2022-10-16T06:29:26;2.25;;;1.80;;
59239;SDS011;45010;53.640;10.578;2022-10-16T06:32:27;2.40;;;2.20;;
59239;SDS011;45010;53.640;10.578;2022-10-16T06:35:27;2.05;;;1.77;;
59239;SDS011;45010;53.640;10.578;2022-10-16T06:38:29;1.77;;;1.60;;
59239;SDS011;45010;53.640;10.578;2022-10-16T06:41:30;2.13;;;1.85;;
59239;SDS011;45010;53.640;10.578;2022-10-16T06:44:30;2.08;;;1.70;;
59239;SDS011;45010;53.640;10.578;2022-10-16T06:47:31;1.98;;;1.77;;
59239;SDS011;45010;53.640;10.578;2022-10-16T06:50:31;1.70;;;1.60;;
59239;SDS011;45010;53.640;10.578;2022-10-16T06:53:32;1.67;;;1.58;;
59239;SDS011;45010;53.640;10.578;2022-10-16T06:56:35;1.92;;;1.42;;
59239;SDS011;45010;53.640;10.578;2022-10-16T06:59:35;1.60;;;1.35;;
59239;SDS011;45010;53.640;10.578;2022-10-16T07:02:35;1.63;;;1.52;;
59239;SDS011;45010;53.640;10.578;2022-10-16T07:05:45;1.80;;;1.67;;
59239;SDS011;45010;53.640;10.578;2022-10-16T07:08:45;2.47;;;1.65;;
59239;SDS011;45010;53.640;10.578;2022-10-16T07:11:47;1.60;;;1.42;;
59239;SDS011;45010;53.640;10.578;2022-10-16T07:14:47;7.28;;;2.85;;
59239;SDS011;45010;53.640;10.578;2022-10-16T07:17:47;1.77;;;1.60;;
59239;SDS011;45010;53.640;10.578;2022-10-16T07:20:48;3.22;;;1.33;;
59239;SDS011;45010;53.640;10.578;2022-10-16T07:23:55;2.85;;;1.65;;
59239;SDS011;45010;53.640;10.578;2022-10-16T07:26:59;1.63;;;1.33;;
59239;SDS011;45010;53.640;10.578;2022-10-16T07:30:00;1.80;;;1.40;;
59239;SDS011;45010;53.640;10.578;2022-10-16T07:33:00;2.53;;;1.20;;
59239;SDS011;45010;53.640;10.578;2022-10-16T07:36:01;2.13;;;1.40;;
59239;SDS011;45010;53.640;10.578;2022-10-16T07:39:01;2.13;;;1.30;;
59239;SDS011;45010;53.640;10.578;2022-10-16T07:42:01;1.10;;;1.00;;
59239;SDS011;45010;53.640;10.578;2022-10-16T07:45:02;2.25;;;1.30;;
59239;SDS011;45010;53.640;10.578;2022-10-16T07:48:02;1.92;;;1.10;;
59239;SDS011;45010;53.640;10.578;2022-10-16T07:51:05;3.72;;;1.30;;
59239;SDS011;45010;53.640;10.578;2022-10-16T07:54:07;1.48;;;1.20;;
59239;SDS011;45010;53.640;10.578;2022-10-16T07:57:08;1.38;;;1.23;;
59239;SDS011;45010;53.640;10.578;2022-10-16T08:00:09;1.98;;;1.20;;
59239;SDS011;45010;53.640;10.578;2022-10-16T08:03:13;2.13;;;1.30;;
59239;SDS011;45010;53.640;10.578;2022-10-16T08:06:14;3.08;;;1.40;;
59239;SDS011;45010;53.640;10.578;2022-10-16T08:09:15;1.45;;;1.20;;
59239;SDS011;45010;53.640;10.578;2022-10-16T08:12:15;1.55;;;1.23;;
59239;SDS011;45010;53.640;10.578;2022-10-16T08:15:15;1.38;;;1.13;;
59239;SDS011;45010;53.640;10.578;2022-10-16T08:18:16;2.50;;;1.38;;
59239;SDS011;45010;53.640;10.578;2022-10-16T08:21:17;1.35;;;1.25;;
59239;SDS011;45010;53.640;10.578;2022-10-16T08:24:22;1.40;;;1.00;;
59239;SDS011;45010;53.640;10.578;2022-10-16T08:27:23;1.40;;;1.25;;
59239;SDS011;45010;53.640;10.578;2022-10-16T08:30:23;3.78;;;1.30;;
59239;SDS011;45010;53.640;10.578;2022-10-16T08:33:24;1.88;;;1.30;;
59239;SDS011;45010;53.640;10.578;2022-10-16T08:36:24;1.15;;;1.05;;
59239;SDS011;45010;53.640;10.578;2022-10-16T08:39:25;1.98;;;1.10;;
59239;SDS011;45010;53.640;10.578;2022-10-16T08:42:44;1.80;;;1.35;;
59239;SDS011;45010;53.640;10.578;2022-10-16T08:48:58;1.50;;;1.20;;
59239;SDS011;45010;53.640;10.578;2022-10-16T08:52:00;1.63;;;1.10;;
59239;SDS011;45010;53.640;10.578;2022-10-16T08:55:00;1.20;;;1.10;;
59239;SDS011;45010;53.640;10.578;2022-10-16T08:58:01;8.77;;;7.72;;
59239;SDS011;45010;53.640;10.578;2022-10-16T09:01:03;8.93;;;8.13;;
59239;SDS011;45010;53.640;10.578;2022-10-16T09:07:41;6.88;;;6.28;;
59239;SDS011;45010;53.640;10.578;2022-10-16T09:14:07;5.53;;;5.03;;
59239;SDS011;45010;53.640;10.578;2022-10-16T09:23:59;3.60;;;3.05;;
59239;SDS011;45010;53.640;10.578;2022-10-16T09:27:12;3.78;;;2.90;;
59239;SDS011;45010;53.640;10.578;2022-10-16T09:30:15;2.72;;;2.53;;
59239;SDS011;45010;53.640;10.578;2022-10-16T09:33:20;2.75;;;1.67;;
59239;SDS011;45010;53.640;10.578;2022-10-16T09:36:25;3.10;;;1.45;;
59239;SDS011;45010;53.640;10.578;2022-10-16T09:39:27;1.40;;;1.30;;
59239;SDS011;45010;53.640;10.578;2022-10-16T09:42:30;2.85;;;1.42;;
59239;SDS011;45010;53.640;10.578;2022-10-16T09:45:32;3.83;;;1.05;;
59239;SDS011;45010;53.640;10.578;2022-10-16T09:48:36;2.05;;;1.05;;
59239;SDS011;45010;53.640;10.578;2022-10-16T09:51:39;3.95;;;1.10;;
59239;SDS011;45010;53.640;10.578;2022-10-16T09:54:59;2.63;;;1.10;;
59239;SDS011;45010;53.640;10.578;2022-10-16T09:58:02;2.20;;;0.90;;
59239;SDS011;45010;53.640;10.578;2022-10-16T10:01:02;2.60;;;0.70;;
59239;SDS011;45010;53.640;10.578;2022-10-16T10:04:02;1.77;;;0.88;;
59239;SDS011;45010;53.640;10.578;2022-10-16T10:07:04;1.30;;;0.70;;
59239;SDS011;45010;53.640;10.578;2022-10-16T10:10:04;2.35;;;1.10;;
59239;SDS011;45010;53.640;10.578;2022-10-16T10:13:16;1.70;;;0.70;;
59239;SDS011;45010;53.640;10.578;2022-10-16T10:16:23;1.20;;;0.70;;
59239;SDS011;45010;53.640;10.578;2022-10-16T10:19:24;2.08;;;0.90;;
59239;SDS011;45010;53.640;10.578;2022-10-16T10:22:31;10.73;;;0.98;;
59239;SDS011;45010;53.640;10.578;2022-10-16T10:29:13;3.33;;;0.70;;
59239;SDS011;45010;53.640;10.578;2022-10-16T10:32:34;1.05;;;0.70;;
59239;SDS011;45010;53.640;10.578;2022-10-16T10:42:59;1.45;;;0.70;;
59239;SDS011;45010;53.640;10.578;2022-10-16T10:46:14;0.50;;;0.50;;
59239;SDS011;45010;53.640;10.578;2022-10-16T10:59:45;1.65;;;0.55;;
59239;SDS011;45010;53.640;10.578;2022-10-16T11:03:08;1.40;;;0.60;;
59239;SDS011;45010;53.640;10.578;2022-10-16T11:06:18;1.55;;;0.50;;
59239;SDS011;45010;53.640;10.578;2022-10-16T11:09:25;1.52;;;0.60;;
59239;SDS011;45010;53.640;10.578;2022-10-16T11:12:39;2.92;;;0.50;;
59239;SDS011;45010;53.640;10.578;2022-10-16T11:15:42;2.42;;;0.60;;
59239;SDS011;45010;53.640;10.578;2022-10-16T11:25:28;3.30;;;0.68;;
59239;SDS011;45010;53.640;10.578;2022-10-16T11:28:42;1.23;;;0.63;;
59239;SDS011;45010;53.640;10.578;2022-10-16T11:31:49;1.90;;;0.60;;
59239;SDS011;45010;53.640;10.578;2022-10-16T11:34:57;3.28;;;0.90;;
59239;SDS011;45010;53.640;10.578;2022-10-16T11:38:02;2.35;;;0.70;;
59239;SDS011;45010;53.640;10.578;2022-10-16T11:47:57;0.95;;;0.50;;
59239;SDS011;45010;53.640;10.578;2022-10-16T11:51:11;2.08;;;0.93;;
59239;SDS011;45010;53.640;10.578;2022-10-16T11:54:21;2.20;;;0.60;;
59239;SDS011;45010;53.640;10.578;2022-10-16T11:57:29;2.30;;;0.43;;
59239;SDS011;45010;53.640;10.578;2022-10-16T12:00:36;1.60;;;0.70;;
59239;SDS011;45010;53.640;10.578;2022-10-16T12:07:13;1.75;;;0.70;;
59239;SDS011;45010;53.640;10.578;2022-10-16T12:10:26;2.38;;;0.82;;
59239;SDS011;45010;53.640;10.578;2022-10-16T12:16:38;1.80;;;0.50;;
59239;SDS011;45010;53.640;10.578;2022-10-16T12:19:58;3.28;;;0.57;;
59239;SDS011;45010;53.640;10.578;2022-10-16T12:23:19;0.95;;;0.32;;
59239;SDS011;45010;53.640;10.578;2022-10-16T12:26:29;2.40;;;0.75;;
59239;SDS011;45010;53.640;10.578;2022-10-16T12:29:37;2.15;;;0.90;;
59239;SDS011;45010;53.640;10.578;2022-10-16T12:32:40;2.60;;;0.57;;
59239;SDS011;45010;53.640;10.578;2022-10-16T12:35:43;1.27;;;0.40;;
59239;SDS011;45010;53.640;10.578;2022-10-16T12:41:45;3.15;;;0.73;;
59239;SDS011;45010;53.640;10.578;2022-10-16T12:44:45;1.63;;;0.52;;
59239;SDS011;45010;53.640;10.578;2022-10-16T12:47:50;1.83;;;0.60;;
59239;SDS011;45010;53.640;10.578;2022-10-16T12:50:53;3.40;;;0.60;;
59239;SDS011;45010;53.640;10.578;2022-10-16T12:57:17;2.53;;;0.63;;
59239;SDS011;45010;53.640;10.578;2022-10-16T13:00:41;3.00;;;0.50;;
59239;SDS011;45010;53.640;10.578;2022-10-16T13:03:58;2.35;;;0.60;;
59239;SDS011;45010;53.640;10.578;2022-10-16T13:13:44;2.45;;;0.80;;
59239;SDS011;45010;53.640;10.578;2022-10-16T13:17:09;2.55;;;0.50;;
59239;SDS011;45010;53.640;10.578;2022-10-16T13:23:33;1.98;;;0.40;;
59239;SDS011;45010;53.640;10.578;2022-10-16T13:30:15;1.65;;;0.50;;
59239;SDS011;45010;53.640;10.578;2022-10-16T13:33:30;2.45;;;0.50;;
59239;SDS011;45010;53.640;10.578;2022-10-16T13:36:42;0.93;;;0.40;;
59239;SDS011;45010;53.640;10.578;2022-10-16T13:39:44;1.30;;;0.50;;
59239;SDS011;45010;53.640;10.578;2022-10-16T13:42:44;2.65;;;0.57;;
59239;SDS011;45010;53.640;10.578;2022-10-16T13:45:57;1.85;;;0.60;;
59239;SDS011;45010;53.640;10.578;2022-10-16T13:49:05;1.98;;;0.57;;
59239;SDS011;45010;53.640;10.578;2022-10-16T13:52:16;1.35;;;0.50;;
59239;SDS011;45010;53.640;10.578;2022-10-16T13:55:18;1.05;;;0.70;;
59239;SDS011;45010;53.640;10.578;2022-10-16T13:58:18;0.63;;;0.40;;
59239;SDS011;45010;53.640;10.578;2022-10-16T14:01:29;1.67;;;0.52;;
59239;SDS011;45010;53.640;10.578;2022-10-16T14:04:33;1.70;;;0.40;;
59239;SDS011;45010;53.640;10.578;2022-10-16T14:07:38;1.90;;;0.65;;
59239;SDS011;45010;53.640;10.578;2022-10-16T14:10:39;2.58;;;0.40;;
59239;SDS011;45010;53.640;10.578;2022-10-16T14:13:44;27.05;;;5.63;;
59239;SDS011;45010;53.640;10.578;2022-10-16T14:16:46;12.40;;;1.88;;
59239;SDS011;45010;53.640;10.578;2022-10-16T14:19:47;6.15;;;1.13;;
59239;SDS011;45010;53.640;10.578;2022-10-16T14:22:57;5.78;;;1.20;;
59239;SDS011;45010;53.640;10.578;2022-10-16T14:29:10;6.07;;;1.00;;
59239;SDS011;45010;53.640;10.578;2022-10-16T14:32:22;6.13;;;1.00;;
59239;SDS011;45010;53.640;10.578;2022-10-16T14:38:32;2.85;;;0.85;;
59239;SDS011;45010;53.640;10.578;2022-10-16T14:41:40;6.60;;;1.30;;
59239;SDS011;45010;53.640;10.578;2022-10-16T14:44:44;5.20;;;1.10;;
59239;SDS011;45010;53.640;10.578;2022-10-16T14:47:49;7.30;;;1.45;;
59239;SDS011;45010;53.640;10.578;2022-10-16T14:50:52;3.15;;;1.30;;
59239;SDS011;45010;53.640;10.578;2022-10-16T14:53:52;4.60;;;1.27;;
59239;SDS011;45010;53.640;10.578;2022-10-16T14:56:54;6.38;;;1.50;;
59239;SDS011;45010;53.640;10.578;2022-10-16T14:59:56;5.53;;;1.08;;
59239;SDS011;45010;53.640;10.578;2022-10-16T15:02:57;3.60;;;1.35;;
59239;SDS011;45010;53.640;10.578;2022-10-16T15:05:57;3.40;;;0.95;;
59239;SDS011;45010;53.640;10.578;2022-10-16T15:08:57;4.78;;;1.17;;
59239;SDS011;45010;53.640;10.578;2022-10-16T15:11:58;5.00;;;1.30;;
59239;SDS011;45010;53.640;10.578;2022-10-16T15:14:59;3.20;;;1.02;;
59239;SDS011;45010;53.640;10.578;2022-10-16T15:18:00;4.43;;;1.00;;
59239;SDS011;45010;53.640;10.578;2022-10-16T15:21:01;3.75;;;0.80;;
59239;SDS011;45010;53.640;10.578;2022-10-16T15:24:01;3.13;;;0.80;;
59239;SDS011;45010;53.640;10.578;2022-10-16T15:27:01;3.22;;;1.10;;
59239;SDS011;45010;53.640;10.578;2022-10-16T15:30:02;4.95;;;1.25;;
59239;SDS011;45010;53.640;10.578;2022-10-16T15:33:03;4.82;;;1.30;;
59239;SDS011;45010;53.640;10.578;2022-10-16T15:36:04;4.60;;;0.90;;
59239;SDS011;45010;53.640;10.578;2022-10-16T15:39:05;2.60;;;1.05;;
59239;SDS011;45010;53.640;10.578;2022-10-16T15:42:16;3.70;;;1.25;;
59239;SDS011;45010;53.640;10.578;2022-10-16T15:45:16;2.58;;;0.80;;
59239;SDS011;45010;53.640;10.578;2022-10-16T15:48:17;3.63;;;1.00;;
59239;SDS011;45010;53.640;10.578;2022-10-16T15:51:18;3.88;;;1.50;;
59239;SDS011;45010;53.640;10.578;2022-10-16T15:54:18;4.07;;;1.45;;
59239;SDS011;45010;53.640;10.578;2022-10-16T15:57:21;5.55;;;3.10;;
59239;SDS011;45010;53.640;10.578;2022-10-16T16:00:22;6.95;;;3.30;;
59239;SDS011;45010;53.640;10.578;2022-10-16T16:03:25;8.40;;;5.32;;
59239;SDS011;45010;53.640;10.578;2022-10-16T16:06:25;6.90;;;4.22;;
59239;SDS011;45010;53.640;10.578;2022-10-16T16:09:28;10.32;;;5.55;;
59239;SDS011;45010;53.640;10.578;2022-10-16T16:12:29;12.00;;;6.65;;
59239;SDS011;45010;53.640;10.578;2022-10-16T16:15:29;10.13;;;6.47;;
59239;SDS011;45010;53.640;10.578;2022-10-16T16:18:30;10.05;;;6.13;;
59239;SDS011;45010;53.640;10.578;2022-10-16T16:21:30;13.60;;;7.30;;
59239;SDS011;45010;53.640;10.578;2022-10-16T16:24:30;10.70;;;6.75;;
59239;SDS011;45010;53.640;10.578;2022-10-16T16:27:31;11.52;;;6.93;;
59239;SDS011;45010;53.640;10.578;2022-10-16T16:30:33;10.55;;;6.63;;
59239;SDS011;45010;53.640;10.578;2022-10-16T16:33:34;11.00;;;6.82;;
59239;SDS011;45010;53.640;10.578;2022-10-16T16:36:35;12.13;;;6.47;;
59239;SDS011;45010;53.640;10.578;2022-10-16T16:39:36;9.88;;;5.60;;
59239;SDS011;45010;53.640;10.578;2022-10-16T16:42:36;10.23;;;6.10;;
59239;SDS011;45010;53.640;10.578;2022-10-16T16:45:36;7.72;;;5.55;;
59239;SDS011;45010;53.640;10.578;2022-10-16T16:48:37;11.10;;;5.80;;
59239;SDS011;45010;53.640;10.578;2022-10-16T16:51:38;10.45;;;5.47;;
59239;SDS011;45010;53.640;10.578;2022-10-16T16:54:38;9.70;;;6.22;;
59239;SDS011;45010;53.640;10.578;2022-10-16T16:57:39;9.85;;;5.60;;
59239;SDS011;45010;53.640;10.578;2022-10-16T17:00:46;8.73;;;5.22;;
59239;SDS011;45010;53.640;10.578;2022-10-16T17:03:46;10.40;;;4.82;;
59239;SDS011;45010;53.640;10.578;2022-10-16T17:06:49;7.95;;;4.60;;
59239;SDS011;45010;53.640;10.578;2022-10-16T17:09:49;7.28;;;4.72;;
59239;SDS011;45010;53.640;10.578;2022-10-16T17:12:50;12.23;;;5.15;;
59239;SDS011;45010;53.640;10.578;2022-10-16T17:15:51;7.72;;;4.60;;
59239;SDS011;45010;53.640;10.578;2022-10-16T17:18:52;7.30;;;4.40;;
59239;SDS011;45010;53.640;10.578;2022-10-16T17:21:53;8.15;;;4.75;;
59239;SDS011;45010;53.640;10.578;2022-10-16T17:24:53;9.30;;;4.60;;
59239;SDS011;45010;53.640;10.578;2022-10-16T17:27:53;7.47;;;3.90;;
59239;SDS011;45010;53.640;10.578;2022-10-16T17:30:54;6.50;;;4.43;;
59239;SDS011;45010;53.640;10.578;2022-10-16T17:33:54;6.05;;;4.28;;
59239;SDS011;45010;53.640;10.578;2022-10-16T17:36:55;6.65;;;4.10;;
59239;SDS011;45010;53.640;10.578;2022-10-16T17:39:55;8.25;;;3.95;;
59239;SDS011;45010;53.640;10.578;2022-10-16T17:42:55;6.72;;;3.70;;
59239;SDS011;45010;53.640;10.578;2022-10-16T17:45:55;6.35;;;3.63;;
59239;SDS011;45010;53.640;10.578;2022-10-16T17:48:56;5.70;;;3.65;;
59239;SDS011;45010;53.640;10.578;2022-10-16T17:51:56;11.50;;;3.63;;
59239;SDS011;45010;53.640;10.578;2022-10-16T17:54:57;5.95;;;3.38;;
59239;SDS011;45010;53.640;10.578;2022-10-16T17:57:58;5.55;;;2.83;;
59239;SDS011;45010;53.640;10.578;2022-10-16T18:00:58;4.28;;;2.55;;
59239;SDS011;45010;53.640;10.578;2022-10-16T18:03:59;5.70;;;3.55;;
59239;SDS011;45010;53.640;10.578;2022-10-16T18:07:06;5.38;;;2.92;;
59239;SDS011;45010;53.640;10.578;2022-10-16T18:10:06;4.93;;;3.22;;
59239;SDS011;45010;53.640;10.578;2022-10-16T18:13:08;6.15;;;2.80;;
59239;SDS011;45010;53.640;10.578;2022-10-16T18:16:10;6.20;;;3.03;;
59239;SDS011;45010;53.640;10.578;2022-10-16T18:19:12;5.70;;;2.80;;
59239;SDS011;45010;53.640;10.578;2022-10-16T18:22:12;3.47;;;2.40;;
59239;SDS011;45010;53.640;10.578;2022-10-16T18:25:12;6.95;;;2.65;;
59239;SDS011;45010;53.640;10.578;2022-10-16T18:28:12;6.05;;;2.42;;
59239;SDS011;45010;53.640;10.578;2022-10-16T18:31:14;7.60;;;2.95;;
59239;SDS011;45010;53.640;10.578;2022-10-16T18:34:16;4.15;;;2.20;;
59239;SDS011;45010;53.640;10.578;2022-10-16T18:37:17;7.35;;;2.90;;
59239;SDS011;45010;53.640;10.578;2022-10-16T18:40:18;5.90;;;2.15;;
59239;SDS011;45010;53.640;10.578;2022-10-16T18:43:19;5.32;;;2.47;;
59239;SDS011;45010;53.640;10.578;2022-10-16T18:46:20;5.18;;;1.90;;
59239;SDS011;45010;53.640;10.578;2022-10-16T18:49:22;4.45;;;2.15;;
59239;SDS011;45010;53.640;10.578;2022-10-16T18:52:23;3.70;;;2.10;;
59239;SDS011;45010;53.640;10.578;2022-10-16T18:55:25;10.52;;;2.20;;
59239;SDS011;45010;53.640;10.578;2022-10-16T18:58:28;4.57;;;2.10;;
59239;SDS011;45010;53.640;10.578;2022-10-16T19:01:29;6.65;;;1.90;;
59239;SDS011;45010;53.640;10.578;2022-10-16T19:04:31;4.70;;;1.63;;
59239;SDS011;45010;53.640;10.578;2022-10-16T19:07:31;3.88;;;2.20;;
59239;SDS011;45010;53.640;10.578;2022-10-16T19:10:34;3.90;;;1.88;;
59239;SDS011;45010;53.640;10.578;2022-10-16T19:13:35;4.63;;;1.80;;
59239;SDS011;45010;53.640;10.578;2022-10-16T19:16:36;4.30;;;1.70;;
59239;SDS011;45010;53.640;10.578;2022-10-16T19:19:37;4.93;;;1.80;;
59239;SDS011;45010;53.640;10.578;2022-10-16T19:22:38;3.13;;;1.55;;
59239;SDS011;45010;53.640;10.578;2022-10-16T19:25:52;3.28;;;1.70;;
59239;SDS011;45010;53.640;10.578;2022-10-16T19:28:53;5.10;;;1.52;;
59239;SDS011;45010;53.640;10.578;2022-10-16T19:31:57;3.10;;;1.33;;
59239;SDS011;45010;53.640;10.578;2022-10-16T19:35:01;3.03;;;1.55;;
59239;SDS011;45010;53.640;10.578;2022-10-16T19:38:01;2.38;;;1.30;;
59239;SDS011;45010;53.640;10.578;2022-10-16T19:41:06;5.18;;;1.65;;
59239;SDS011;45010;53.640;10.578;2022-10-16T19:44:07;2.58;;;1.20;;
59239;SDS011;45010;53.640;10.578;2022-10-16T19:47:10;2.28;;;1.33;;